sensor_id;sensor_type;location;lat;lon;timestamp;P1;durP1;ratioP1;P2;durP2;ratioP2
3849;SDS011;1940;51.052;13.678;2024-01-07T00:01:14;33.17;;;15.10;;
3849;SDS011;1940;51.052;13.678;2024-01-07T00:03:42;27.60;;;13.83;;
3849;SDS011;1940;51.052;13.678;2024-01-07T00:06:09;32.27;;;14.63;;
3849;SDS011;1940;51.052;13.678;2024-01-07T00:08:35;33.20;;;15.00;;
3849;SDS011;1940;51.052;13.678;2024-01-07T00:11:00;34.53;;;15.83;;
3849;SDS011;1940;51.052;13.678;2024-01-07T00:13:26;34.90;;;16.03;;
3849;SDS011;1940;51.052;13.678;2024-01-07T00:15:51;28.53;;;14.00;;
3849;SDS011;1940;51.052;13.678;2024-01-07T00:18:18;30.77;;;15.27;;
3849;SDS011;1940;51.052;13.678;2024-01-07T00:20:44;36.83;;;14.50;;
3849;SDS011;1940;51.052;13.678;2024-01-07T00:23:10;28.40;;;13.80;;
3849;SDS011;1940;51.052;13.678;2024-01-07T00:25:35;33.07;;;15.43;;
3849;SDS011;1940;51.052;13.678;2024-01-07T00:28:01;34.10;;;15.00;;
3849;SDS011;1940;51.052;13.678;2024-01-07T00:30:26;30.73;;;14.13;;
3849;SDS011;1940;51.052;13.678;2024-01-07T00:32:52;30.80;;;14.23;;
3849;SDS011;1940;51.052;13.678;2024-01-07T00:35:17;35.73;;;16.00;;
3849;SDS011;1940;51.052;13.678;2024-01-07T00:37:43;33.53;;;14.30;;
3849;SDS011;1940;51.052;13.678;2024-01-07T00:40:09;28.67;;;13.10;;
3849;SDS011;1940;51.052;13.678;2024-01-07T00:42:35;35.00;;;15.10;;
3849;SDS011;1940;51.052;13.678;2024-01-07T00:45:00;28.80;;;14.43;;
3849;SDS011;1940;51.052;13.678;2024-01-07T00:47:26;25.43;;;12.27;;
3849;SDS011;1940;51.052;13.678;2024-01-07T00:49:51;26.80;;;13.97;;
3849;SDS011;1940;51.052;13.678;2024-01-07T00:52:17;26.43;;;13.50;;
3849;SDS011;1940;51.052;13.678;2024-01-07T00:54:42;31.47;;;14.10;;
3849;SDS011;1940;51.052;13.678;2024-01-07T00:57:09;30.80;;;14.20;;
3849;SDS011;1940;51.052;13.678;2024-01-07T00:59:35;29.40;;;14.20;;
3849;SDS011;1940;51.052;13.678;2024-01-07T01:02:01;31.10;;;12.50;;
3849;SDS011;1940;51.052;13.678;2024-01-07T01:04:26;25.80;;;13.40;;
3849;SDS011;1940;51.052;13.678;2024-01-07T01:06:51;28.90;;;12.67;;
3849;SDS011;1940;51.052;13.678;2024-01-07T01:09:17;30.00;;;11.73;;
3849;SDS011;1940;51.052;13.678;2024-01-07T01:11:43;28.47;;;13.37;;
3849;SDS011;1940;51.052;13.678;2024-01-07T01:14:09;28.47;;;12.97;;
3849;SDS011;1940;51.052;13.678;2024-01-07T01:16:34;27.20;;;13.03;;
3849;SDS011;1940;51.052;13.678;2024-01-07T01:19:00;28.20;;;13.80;;
3849;SDS011;1940;51.052;13.678;2024-01-07T01:21:25;29.13;;;13.27;;
3849;SDS011;1940;51.052;13.678;2024-01-07T01:23:51;25.27;;;12.30;;
3849;SDS011;1940;51.052;13.678;2024-01-07T01:26:16;27.03;;;12.70;;
3849;SDS011;1940;51.052;13.678;2024-01-07T01:28:42;25.50;;;12.70;;
3849;SDS011;1940;51.052;13.678;2024-01-07T01:31:07;26.27;;;11.63;;
3849;SDS011;1940;51.052;13.678;2024-01-07T01:33:32;27.93;;;13.20;;
3849;SDS011;1940;51.052;13.678;2024-01-07T01:35:58;24.63;;;12.30;;
3849;SDS011;1940;51.052;13.678;2024-01-07T01:38:23;26.37;;;12.43;;
3849;SDS011;1940;51.052;13.678;2024-01-07T01:40:52;30.73;;;13.30;;
3849;SDS011;1940;51.052;13.678;2024-01-07T01:43:22;29.13;;;12.40;;
3849;SDS011;1940;51.052;13.678;2024-01-07T01:45:48;24.53;;;12.97;;
3849;SDS011;1940;51.052;13.678;2024-01-07T01:48:14;27.43;;;12.87;;
3849;SDS011;1940;51.052;13.678;2024-01-07T01:50:39;23.60;;;11.13;;
3849;SDS011;1940;51.052;13.678;2024-01-07T01:53:05;28.07;;;13.10;;
3849;SDS011;1940;51.052;13.678;2024-01-07T01:55:30;30.90;;;13.40;;
3849;SDS011;1940;51.052;13.678;2024-01-07T01:57:56;32.90;;;15.47;;
3849;SDS011;1940;51.052;13.678;2024-01-07T02:00:28;25.97;;;12.27;;
3849;SDS011;1940;51.052;13.678;2024-01-07T02:02:54;39.80;;;13.33;;
3849;SDS011;1940;51.052;13.678;2024-01-07T02:05:20;28.70;;;12.83;;
3849;SDS011;1940;51.052;13.678;2024-01-07T02:07:45;33.13;;;13.20;;
3849;SDS011;1940;51.052;13.678;2024-01-07T02:10:11;31.43;;;13.03;;
3849;SDS011;1940;51.052;13.678;2024-01-07T02:12:37;31.10;;;13.97;;
3849;SDS011;1940;51.052;13.678;2024-01-07T02:15:03;31.20;;;11.87;;
3849;SDS011;1940;51.052;13.678;2024-01-07T02:17:29;22.83;;;12.90;;
3849;SDS011;1940;51.052;13.678;2024-01-07T02:19:54;26.47;;;12.40;;
3849;SDS011;1940;51.052;13.678;2024-01-07T02:22:20;28.43;;;13.40;;
3849;SDS011;1940;51.052;13.678;2024-01-07T02:24:45;27.93;;;13.67;;
3849;SDS011;1940;51.052;13.678;2024-01-07T02:27:11;28.27;;;11.77;;
3849;SDS011;1940;51.052;13.678;2024-01-07T02:29:36;24.97;;;11.67;;
3849;SDS011;1940;51.052;13.678;2024-01-07T02:32:02;26.33;;;13.13;;
3849;SDS011;1940;51.052;13.678;2024-01-07T02:34:28;30.40;;;12.80;;
3849;SDS011;1940;51.052;13.678;2024-01-07T02:36:53;24.63;;;13.20;;
3849;SDS011;1940;51.052;13.678;2024-01-07T02:39:19;27.17;;;12.80;;
3849;SDS011;1940;51.052;13.678;2024-01-07T02:41:44;26.77;;;11.60;;
3849;SDS011;1940;51.052;13.678;2024-01-07T02:44:10;28.73;;;13.33;;
3849;SDS011;1940;51.052;13.678;2024-01-07T02:46:35;28.20;;;12.67;;
3849;SDS011;1940;51.052;13.678;2024-01-07T02:49:01;24.97;;;11.90;;
3849;SDS011;1940;51.052;13.678;2024-01-07T02:51:26;26.40;;;11.77;;
3849;SDS011;1940;51.052;13.678;2024-01-07T02:53:52;23.77;;;10.77;;
3849;SDS011;1940;51.052;13.678;2024-01-07T02:56:17;25.83;;;11.17;;
3849;SDS011;1940;51.052;13.678;2024-01-07T02:58:42;25.60;;;11.33;;
3849;SDS011;1940;51.052;13.678;2024-01-07T03:01:08;28.27;;;11.83;;
3849;SDS011;1940;51.052;13.678;2024-01-07T03:03:34;25.77;;;11.17;;
3849;SDS011;1940;51.052;13.678;2024-01-07T03:06:00;27.30;;;11.13;;
3849;SDS011;1940;51.052;13.678;2024-01-07T03:08:26;25.50;;;12.00;;
3849;SDS011;1940;51.052;13.678;2024-01-07T03:10:52;24.70;;;11.07;;
3849;SDS011;1940;51.052;13.678;2024-01-07T03:13:18;21.80;;;11.30;;
3849;SDS011;1940;51.052;13.678;2024-01-07T03:15:45;24.60;;;11.03;;
3849;SDS011;1940;51.052;13.678;2024-01-07T03:18:10;21.90;;;9.87;;
3849;SDS011;1940;51.052;13.678;2024-01-07T03:20:36;23.13;;;10.73;;
3849;SDS011;1940;51.052;13.678;2024-01-07T03:23:01;22.77;;;11.10;;
3849;SDS011;1940;51.052;13.678;2024-01-07T03:25:27;21.10;;;10.17;;
3849;SDS011;1940;51.052;13.678;2024-01-07T03:27:53;24.50;;;11.03;;
3849;SDS011;1940;51.052;13.678;2024-01-07T03:30:18;26.00;;;11.00;;
3849;SDS011;1940;51.052;13.678;2024-01-07T03:32:43;21.67;;;11.30;;
3849;SDS011;1940;51.052;13.678;2024-01-07T03:35:09;22.67;;;10.57;;
3849;SDS011;1940;51.052;13.678;2024-01-07T03:37:35;19.77;;;9.70;;
3849;SDS011;1940;51.052;13.678;2024-01-07T03:40:00;20.87;;;10.60;;
3849;SDS011;1940;51.052;13.678;2024-01-07T03:42:26;20.10;;;10.13;;
3849;SDS011;1940;51.052;13.678;2024-01-07T03:44:51;19.47;;;10.07;;
3849;SDS011;1940;51.052;13.678;2024-01-07T03:47:17;19.10;;;9.63;;
3849;SDS011;1940;51.052;13.678;2024-01-07T03:49:42;18.30;;;9.50;;
3849;SDS011;1940;51.052;13.678;2024-01-07T03:52:08;22.70;;;10.40;;
3849;SDS011;1940;51.052;13.678;2024-01-07T03:54:34;22.03;;;10.70;;
3849;SDS011;1940;51.052;13.678;2024-01-07T03:56:59;21.13;;;9.70;;
3849;SDS011;1940;51.052;13.678;2024-01-07T03:59:25;20.23;;;10.70;;
3849;SDS011;1940;51.052;13.678;2024-01-07T04:01:53;19.20;;;9.83;;
3849;SDS011;1940;51.052;13.678;2024-01-07T04:04:22;18.83;;;10.63;;
3849;SDS011;1940;51.052;13.678;2024-01-07T04:06:47;17.87;;;8.70;;
3849;SDS011;1940;51.052;13.678;2024-01-07T04:09:13;25.73;;;11.37;;
3849;SDS011;1940;51.052;13.678;2024-01-07T04:11:39;18.90;;;10.47;;
3849;SDS011;1940;51.052;13.678;2024-01-07T04:14:08;26.50;;;11.90;;
3849;SDS011;1940;51.052;13.678;2024-01-07T04:16:34;23.80;;;10.70;;
3849;SDS011;1940;51.052;13.678;2024-01-07T04:19:00;20.83;;;10.27;;
3849;SDS011;1940;51.052;13.678;2024-01-07T04:21:26;20.43;;;9.13;;
3849;SDS011;1940;51.052;13.678;2024-01-07T04:23:51;18.33;;;9.50;;
3849;SDS011;1940;51.052;13.678;2024-01-07T04:26:17;19.47;;;9.00;;
3849;SDS011;1940;51.052;13.678;2024-01-07T04:28:42;18.57;;;9.20;;
3849;SDS011;1940;51.052;13.678;2024-01-07T04:31:08;22.10;;;10.23;;
3849;SDS011;1940;51.052;13.678;2024-01-07T04:33:34;18.43;;;8.80;;
3849;SDS011;1940;51.052;13.678;2024-01-07T04:36:00;25.63;;;10.77;;
3849;SDS011;1940;51.052;13.678;2024-01-07T04:38:26;20.60;;;10.10;;
3849;SDS011;1940;51.052;13.678;2024-01-07T04:40:51;17.57;;;9.30;;
3849;SDS011;1940;51.052;13.678;2024-01-07T04:43:18;24.37;;;9.63;;
3849;SDS011;1940;51.052;13.678;2024-01-07T04:45:44;17.83;;;9.20;;
3849;SDS011;1940;51.052;13.678;2024-01-07T04:48:09;24.83;;;9.47;;
3849;SDS011;1940;51.052;13.678;2024-01-07T04:50:35;21.03;;;9.80;;
3849;SDS011;1940;51.052;13.678;2024-01-07T04:53:01;19.63;;;9.53;;
3849;SDS011;1940;51.052;13.678;2024-01-07T04:55:27;19.27;;;9.63;;
3849;SDS011;1940;51.052;13.678;2024-01-07T04:57:52;15.80;;;9.10;;
3849;SDS011;1940;51.052;13.678;2024-01-07T05:00:18;15.37;;;8.60;;
3849;SDS011;1940;51.052;13.678;2024-01-07T05:02:43;18.23;;;9.10;;
3849;SDS011;1940;51.052;13.678;2024-01-07T05:05:09;18.17;;;8.63;;
3849;SDS011;1940;51.052;13.678;2024-01-07T05:07:34;19.47;;;9.50;;
3849;SDS011;1940;51.052;13.678;2024-01-07T05:10:00;17.00;;;8.70;;
3849;SDS011;1940;51.052;13.678;2024-01-07T05:12:25;16.73;;;8.50;;
3849;SDS011;1940;51.052;13.678;2024-01-07T05:14:51;15.67;;;7.70;;
3849;SDS011;1940;51.052;13.678;2024-01-07T05:17:17;17.17;;;8.00;;
3849;SDS011;1940;51.052;13.678;2024-01-07T05:19:42;13.37;;;7.47;;
3849;SDS011;1940;51.052;13.678;2024-01-07T05:22:08;18.97;;;8.83;;
3849;SDS011;1940;51.052;13.678;2024-01-07T05:24:36;16.70;;;8.23;;
3849;SDS011;1940;51.052;13.678;2024-01-07T05:27:04;14.50;;;7.87;;
3849;SDS011;1940;51.052;13.678;2024-01-07T05:29:30;12.37;;;7.30;;
3849;SDS011;1940;51.052;13.678;2024-01-07T05:31:58;14.40;;;6.60;;
3849;SDS011;1940;51.052;13.678;2024-01-07T05:34:25;17.80;;;8.20;;
3849;SDS011;1940;51.052;13.678;2024-01-07T05:36:51;14.77;;;8.13;;
3849;SDS011;1940;51.052;13.678;2024-01-07T05:39:16;13.67;;;7.00;;
3849;SDS011;1940;51.052;13.678;2024-01-07T05:41:42;15.80;;;7.40;;
3849;SDS011;1940;51.052;13.678;2024-01-07T05:44:07;15.73;;;7.53;;
3849;SDS011;1940;51.052;13.678;2024-01-07T05:46:33;14.43;;;7.50;;
3849;SDS011;1940;51.052;13.678;2024-01-07T05:48:59;11.83;;;6.60;;
3849;SDS011;1940;51.052;13.678;2024-01-07T05:51:24;15.40;;;7.17;;
3849;SDS011;1940;51.052;13.678;2024-01-07T05:53:50;16.70;;;7.77;;
3849;SDS011;1940;51.052;13.678;2024-01-07T05:56:15;14.17;;;7.57;;
3849;SDS011;1940;51.052;13.678;2024-01-07T05:58:41;13.70;;;6.50;;
3849;SDS011;1940;51.052;13.678;2024-01-07T06:01:07;11.90;;;6.80;;
3849;SDS011;1940;51.052;13.678;2024-01-07T06:03:33;10.70;;;6.43;;
3849;SDS011;1940;51.052;13.678;2024-01-07T06:05:59;14.43;;;6.57;;
3849;SDS011;1940;51.052;13.678;2024-01-07T06:08:24;12.23;;;7.27;;
3849;SDS011;1940;51.052;13.678;2024-01-07T06:10:51;11.10;;;5.93;;
3849;SDS011;1940;51.052;13.678;2024-01-07T06:13:16;11.13;;;6.20;;
3849;SDS011;1940;51.052;13.678;2024-01-07T06:15:42;14.27;;;7.27;;
3849;SDS011;1940;51.052;13.678;2024-01-07T06:18:07;13.47;;;6.87;;
3849;SDS011;1940;51.052;13.678;2024-01-07T06:20:33;12.77;;;6.30;;
3849;SDS011;1940;51.052;13.678;2024-01-07T06:22:58;12.67;;;6.47;;
3849;SDS011;1940;51.052;13.678;2024-01-07T06:25:23;14.60;;;6.40;;
3849;SDS011;1940;51.052;13.678;2024-01-07T06:27:51;15.00;;;6.30;;
3849;SDS011;1940;51.052;13.678;2024-01-07T06:30:16;12.77;;;6.57;;
3849;SDS011;1940;51.052;13.678;2024-01-07T06:32:44;14.33;;;6.23;;
3849;SDS011;1940;51.052;13.678;2024-01-07T06:35:10;10.53;;;5.80;;
3849;SDS011;1940;51.052;13.678;2024-01-07T06:37:36;13.80;;;6.50;;
3849;SDS011;1940;51.052;13.678;2024-01-07T06:40:01;11.43;;;6.20;;
3849;SDS011;1940;51.052;13.678;2024-01-07T06:42:28;16.63;;;5.80;;
3849;SDS011;1940;51.052;13.678;2024-01-07T06:44:53;8.50;;;5.17;;
3849;SDS011;1940;51.052;13.678;2024-01-07T06:47:18;8.30;;;4.70;;
3849;SDS011;1940;51.052;13.678;2024-01-07T06:49:44;11.13;;;6.00;;
3849;SDS011;1940;51.052;13.678;2024-01-07T06:52:10;12.80;;;4.97;;
3849;SDS011;1940;51.052;13.678;2024-01-07T06:54:36;8.30;;;4.40;;
3849;SDS011;1940;51.052;13.678;2024-01-07T06:57:01;10.77;;;5.87;;
3849;SDS011;1940;51.052;13.678;2024-01-07T06:59:27;11.37;;;5.23;;
3849;SDS011;1940;51.052;13.678;2024-01-07T07:01:53;16.43;;;4.90;;
3849;SDS011;1940;51.052;13.678;2024-01-07T07:04:20;9.30;;;4.90;;
3849;SDS011;1940;51.052;13.678;2024-01-07T07:06:46;8.03;;;4.70;;
3849;SDS011;1940;51.052;13.678;2024-01-07T07:09:12;6.10;;;4.00;;
3849;SDS011;1940;51.052;13.678;2024-01-07T07:11:37;8.07;;;5.00;;
3849;SDS011;1940;51.052;13.678;2024-01-07T07:14:03;9.00;;;4.67;;
3849;SDS011;1940;51.052;13.678;2024-01-07T07:16:28;9.40;;;4.50;;
3849;SDS011;1940;51.052;13.678;2024-01-07T07:18:54;7.23;;;4.50;;
3849;SDS011;1940;51.052;13.678;2024-01-07T07:21:19;7.43;;;3.97;;
3849;SDS011;1940;51.052;13.678;2024-01-07T07:23:45;8.60;;;4.63;;
3849;SDS011;1940;51.052;13.678;2024-01-07T07:26:10;7.00;;;4.83;;
3849;SDS011;1940;51.052;13.678;2024-01-07T07:28:36;8.57;;;4.67;;
3849;SDS011;1940;51.052;13.678;2024-01-07T07:31:02;11.00;;;4.47;;
3849;SDS011;1940;51.052;13.678;2024-01-07T07:33:27;10.00;;;5.30;;
3849;SDS011;1940;51.052;13.678;2024-01-07T07:35:53;8.40;;;4.67;;
3849;SDS011;1940;51.052;13.678;2024-01-07T07:38:18;9.57;;;5.10;;
3849;SDS011;1940;51.052;13.678;2024-01-07T07:40:43;8.77;;;4.60;;
3849;SDS011;1940;51.052;13.678;2024-01-07T07:43:12;7.23;;;4.20;;
3849;SDS011;1940;51.052;13.678;2024-01-07T07:45:37;7.73;;;3.70;;
3849;SDS011;1940;51.052;13.678;2024-01-07T07:48:03;8.40;;;4.90;;
3849;SDS011;1940;51.052;13.678;2024-01-07T07:50:28;7.30;;;4.43;;
3849;SDS011;1940;51.052;13.678;2024-01-07T07:52:54;5.70;;;4.10;;
3849;SDS011;1940;51.052;13.678;2024-01-07T07:55:20;12.67;;;5.10;;
3849;SDS011;1940;51.052;13.678;2024-01-07T07:57:45;7.13;;;4.20;;
3849;SDS011;1940;51.052;13.678;2024-01-07T08:00:11;6.47;;;4.10;;
3849;SDS011;1940;51.052;13.678;2024-01-07T08:02:37;7.10;;;4.30;;
3849;SDS011;1940;51.052;13.678;2024-01-07T08:05:03;5.87;;;3.93;;
3849;SDS011;1940;51.052;13.678;2024-01-07T08:07:29;14.20;;;4.20;;
3849;SDS011;1940;51.052;13.678;2024-01-07T08:09:54;6.17;;;3.83;;
3849;SDS011;1940;51.052;13.678;2024-01-07T08:12:22;6.30;;;4.23;;
3849;SDS011;1940;51.052;13.678;2024-01-07T08:14:47;8.93;;;3.50;;
3849;SDS011;1940;51.052;13.678;2024-01-07T08:17:12;5.30;;;3.43;;
3849;SDS011;1940;51.052;13.678;2024-01-07T08:19:38;4.70;;;3.20;;
3849;SDS011;1940;51.052;13.678;2024-01-07T08:22:04;5.23;;;3.50;;
3849;SDS011;1940;51.052;13.678;2024-01-07T08:24:29;8.50;;;3.53;;
3849;SDS011;1940;51.052;13.678;2024-01-07T08:26:55;4.40;;;3.30;;
3849;SDS011;1940;51.052;13.678;2024-01-07T08:29:20;5.27;;;3.37;;
3849;SDS011;1940;51.052;13.678;2024-01-07T08:31:46;4.40;;;2.90;;
3849;SDS011;1940;51.052;13.678;2024-01-07T08:34:11;4.97;;;3.20;;
3849;SDS011;1940;51.052;13.678;2024-01-07T08:36:37;4.97;;;3.37;;
3849;SDS011;1940;51.052;13.678;2024-01-07T08:39:03;4.67;;;2.90;;
3849;SDS011;1940;51.052;13.678;2024-01-07T08:41:29;5.37;;;3.43;;
3849;SDS011;1940;51.052;13.678;2024-01-07T08:43:54;3.53;;;3.03;;
3849;SDS011;1940;51.052;13.678;2024-01-07T08:46:20;4.33;;;2.93;;
3849;SDS011;1940;51.052;13.678;2024-01-07T08:48:46;4.37;;;2.77;;
3849;SDS011;1940;51.052;13.678;2024-01-07T08:51:12;5.70;;;3.47;;
3849;SDS011;1940;51.052;13.678;2024-01-07T08:53:37;4.87;;;2.80;;
3849;SDS011;1940;51.052;13.678;2024-01-07T08:56:03;5.13;;;2.70;;
3849;SDS011;1940;51.052;13.678;2024-01-07T08:58:28;6.17;;;3.03;;
3849;SDS011;1940;51.052;13.678;2024-01-07T09:00:54;4.27;;;3.07;;
3849;SDS011;1940;51.052;13.678;2024-01-07T09:03:19;4.23;;;2.60;;
3849;SDS011;1940;51.052;13.678;2024-01-07T09:05:45;4.43;;;2.30;;
3849;SDS011;1940;51.052;13.678;2024-01-07T09:08:10;6.27;;;2.87;;
3849;SDS011;1940;51.052;13.678;2024-01-07T09:10:39;7.07;;;3.20;;
3849;SDS011;1940;51.052;13.678;2024-01-07T09:13:04;4.10;;;3.10;;
3849;SDS011;1940;51.052;13.678;2024-01-07T09:15:30;6.60;;;3.07;;
3849;SDS011;1940;51.052;13.678;2024-01-07T09:17:55;8.87;;;3.10;;
3849;SDS011;1940;51.052;13.678;2024-01-07T09:20:21;3.37;;;2.83;;
3849;SDS011;1940;51.052;13.678;2024-01-07T09:22:46;4.50;;;2.70;;
3849;SDS011;1940;51.052;13.678;2024-01-07T09:25:13;6.10;;;3.00;;
3849;SDS011;1940;51.052;13.678;2024-01-07T09:27:39;4.73;;;3.20;;
3849;SDS011;1940;51.052;13.678;2024-01-07T09:30:04;4.80;;;2.63;;
3849;SDS011;1940;51.052;13.678;2024-01-07T09:32:30;4.53;;;2.73;;
3849;SDS011;1940;51.052;13.678;2024-01-07T09:34:56;11.03;;;2.50;;
3849;SDS011;1940;51.052;13.678;2024-01-07T09:37:22;3.90;;;2.70;;
3849;SDS011;1940;51.052;13.678;2024-01-07T09:39:48;3.40;;;2.80;;
3849;SDS011;1940;51.052;13.678;2024-01-07T09:42:14;4.73;;;3.20;;
3849;SDS011;1940;51.052;13.678;2024-01-07T09:44:43;6.40;;;3.10;;
3849;SDS011;1940;51.052;13.678;2024-01-07T09:47:10;5.60;;;3.07;;
3849;SDS011;1940;51.052;13.678;2024-01-07T09:49:37;6.73;;;3.70;;
3849;SDS011;1940;51.052;13.678;2024-01-07T09:52:03;6.37;;;3.23;;
3849;SDS011;1940;51.052;13.678;2024-01-07T09:54:30;4.80;;;3.20;;
3849;SDS011;1940;51.052;13.678;2024-01-07T09:56:58;4.47;;;2.87;;
3849;SDS011;1940;51.052;13.678;2024-01-07T09:59:27;5.53;;;3.07;;
3849;SDS011;1940;51.052;13.678;2024-01-07T10:01:54;7.53;;;3.10;;
3849;SDS011;1940;51.052;13.678;2024-01-07T10:04:21;5.20;;;2.90;;
3849;SDS011;1940;51.052;13.678;2024-01-07T10:06:46;5.90;;;2.77;;
3849;SDS011;1940;51.052;13.678;2024-01-07T10:09:14;4.40;;;2.93;;
3849;SDS011;1940;51.052;13.678;2024-01-07T10:11:40;4.27;;;2.63;;
3849;SDS011;1940;51.052;13.678;2024-01-07T10:14:06;4.00;;;2.80;;
3849;SDS011;1940;51.052;13.678;2024-01-07T10:16:31;3.57;;;2.83;;
3849;SDS011;1940;51.052;13.678;2024-01-07T10:18:58;6.13;;;3.30;;
3849;SDS011;1940;51.052;13.678;2024-01-07T10:21:23;4.73;;;2.77;;
3849;SDS011;1940;51.052;13.678;2024-01-07T10:23:49;3.40;;;2.47;;
3849;SDS011;1940;51.052;13.678;2024-01-07T10:26:15;4.30;;;3.13;;
3849;SDS011;1940;51.052;13.678;2024-01-07T10:28:41;5.73;;;3.33;;
3849;SDS011;1940;51.052;13.678;2024-01-07T10:31:08;6.10;;;2.73;;
3849;SDS011;1940;51.052;13.678;2024-01-07T10:33:33;4.57;;;2.83;;
3849;SDS011;1940;51.052;13.678;2024-01-07T10:36:02;8.50;;;3.10;;
3849;SDS011;1940;51.052;13.678;2024-01-07T10:38:31;4.57;;;2.40;;
3849;SDS011;1940;51.052;13.678;2024-01-07T10:40:58;4.40;;;2.70;;
3849;SDS011;1940;51.052;13.678;2024-01-07T10:43:24;5.30;;;2.77;;
3849;SDS011;1940;51.052;13.678;2024-01-07T10:45:53;4.10;;;2.60;;
3849;SDS011;1940;51.052;13.678;2024-01-07T10:48:20;3.40;;;2.87;;
3849;SDS011;1940;51.052;13.678;2024-01-07T10:50:46;3.23;;;2.63;;
3849;SDS011;1940;51.052;13.678;2024-01-07T10:53:17;2.73;;;2.20;;
3849;SDS011;1940;51.052;13.678;2024-01-07T10:55:52;5.93;;;3.20;;
3849;SDS011;1940;51.052;13.678;2024-01-07T10:58:24;3.90;;;2.50;;
3849;SDS011;1940;51.052;13.678;2024-01-07T11:00:51;3.40;;;2.60;;
3849;SDS011;1940;51.052;13.678;2024-01-07T11:03:21;3.63;;;2.70;;
3849;SDS011;1940;51.052;13.678;2024-01-07T11:06:03;3.67;;;2.70;;
3849;SDS011;1940;51.052;13.678;2024-01-07T11:08:47;3.53;;;2.40;;
3849;SDS011;1940;51.052;13.678;2024-01-07T11:11:18;5.00;;;3.23;;
3849;SDS011;1940;51.052;13.678;2024-01-07T11:13:48;4.67;;;2.97;;
3849;SDS011;1940;51.052;13.678;2024-01-07T11:16:14;7.60;;;2.50;;
3849;SDS011;1940;51.052;13.678;2024-01-07T11:19:06;6.57;;;2.87;;
3849;SDS011;1940;51.052;13.678;2024-01-07T11:21:32;8.30;;;3.00;;
3849;SDS011;1940;51.052;13.678;2024-01-07T11:23:57;6.10;;;3.60;;
3849;SDS011;1940;51.052;13.678;2024-01-07T11:26:22;4.07;;;2.30;;
3849;SDS011;1940;51.052;13.678;2024-01-07T11:31:21;2.83;;;2.00;;
3849;SDS011;1940;51.052;13.678;2024-01-07T11:34:06;3.83;;;2.43;;
3849;SDS011;1940;51.052;13.678;2024-01-07T11:36:32;4.40;;;2.77;;
3849;SDS011;1940;51.052;13.678;2024-01-07T11:39:01;4.70;;;2.83;;
3849;SDS011;1940;51.052;13.678;2024-01-07T11:41:28;3.43;;;2.40;;
3849;SDS011;1940;51.052;13.678;2024-01-07T11:43:58;5.07;;;2.50;;
3849;SDS011;1940;51.052;13.678;2024-01-07T11:46:25;6.17;;;2.70;;
3849;SDS011;1940;51.052;13.678;2024-01-07T11:48:56;3.27;;;2.20;;
3849;SDS011;1940;51.052;13.678;2024-01-07T11:51:28;2.30;;;2.10;;
3849;SDS011;1940;51.052;13.678;2024-01-07T11:53:55;3.10;;;2.10;;
3849;SDS011;1940;51.052;13.678;2024-01-07T11:56:21;2.20;;;2.00;;
3849;SDS011;1940;51.052;13.678;2024-01-07T11:58:47;2.90;;;2.30;;
3849;SDS011;1940;51.052;13.678;2024-01-07T12:01:14;3.10;;;2.53;;
3849;SDS011;1940;51.052;13.678;2024-01-07T12:03:41;3.50;;;2.20;;
3849;SDS011;1940;51.052;13.678;2024-01-07T12:06:09;3.90;;;2.23;;
3849;SDS011;1940;51.052;13.678;2024-01-07T12:08:38;2.30;;;2.10;;
3849;SDS011;1940;51.052;13.678;2024-01-07T12:11:08;5.00;;;2.23;;
3849;SDS011;1940;51.052;13.678;2024-01-07T12:13:36;2.90;;;2.47;;
3849;SDS011;1940;51.052;13.678;2024-01-07T12:16:02;5.07;;;2.30;;
3849;SDS011;1940;51.052;13.678;2024-01-07T12:18:28;3.73;;;2.60;;
3849;SDS011;1940;51.052;13.678;2024-01-07T12:20:58;2.40;;;1.83;;
3849;SDS011;1940;51.052;13.678;2024-01-07T12:23:26;3.30;;;2.47;;
3849;SDS011;1940;51.052;13.678;2024-01-07T12:25:52;3.90;;;2.27;;
3849;SDS011;1940;51.052;13.678;2024-01-07T12:28:18;4.10;;;2.30;;
3849;SDS011;1940;51.052;13.678;2024-01-07T12:30:44;3.30;;;2.47;;
3849;SDS011;1940;51.052;13.678;2024-01-07T12:33:10;2.60;;;2.20;;
3849;SDS011;1940;51.052;13.678;2024-01-07T12:35:36;3.80;;;2.50;;
3849;SDS011;1940;51.052;13.678;2024-01-07T12:38:01;2.90;;;2.10;;
3849;SDS011;1940;51.052;13.678;2024-01-07T12:40:27;3.07;;;2.00;;
3849;SDS011;1940;51.052;13.678;2024-01-07T12:42:53;3.43;;;2.60;;
3849;SDS011;1940;51.052;13.678;2024-01-07T12:45:18;4.70;;;2.50;;
3849;SDS011;1940;51.052;13.678;2024-01-07T12:47:44;2.20;;;2.00;;
3849;SDS011;1940;51.052;13.678;2024-01-07T12:50:10;4.53;;;2.33;;
3849;SDS011;1940;51.052;13.678;2024-01-07T12:52:37;4.93;;;2.40;;
3849;SDS011;1940;51.052;13.678;2024-01-07T12:55:06;7.03;;;1.90;;
3849;SDS011;1940;51.052;13.678;2024-01-07T12:57:32;3.03;;;2.27;;
3849;SDS011;1940;51.052;13.678;2024-01-07T12:59:58;2.90;;;2.07;;
3849;SDS011;1940;51.052;13.678;2024-01-07T13:02:24;4.50;;;2.60;;
3849;SDS011;1940;51.052;13.678;2024-01-07T13:04:50;4.00;;;2.20;;
3849;SDS011;1940;51.052;13.678;2024-01-07T13:07:16;4.40;;;2.53;;
3849;SDS011;1940;51.052;13.678;2024-01-07T13:09:41;3.03;;;2.03;;
3849;SDS011;1940;51.052;13.678;2024-01-07T13:12:09;1.63;;;1.53;;
3849;SDS011;1940;51.052;13.678;2024-01-07T13:14:35;2.53;;;1.90;;
3849;SDS011;1940;51.052;13.678;2024-01-07T13:17:00;1.97;;;1.80;;
3849;SDS011;1940;51.052;13.678;2024-01-07T13:19:26;1.50;;;1.40;;
3849;SDS011;1940;51.052;13.678;2024-01-07T13:21:52;2.33;;;1.93;;
3849;SDS011;1940;51.052;13.678;2024-01-07T13:24:20;3.10;;;2.07;;
3849;SDS011;1940;51.052;13.678;2024-01-07T13:26:46;3.27;;;2.27;;
3849;SDS011;1940;51.052;13.678;2024-01-07T13:29:12;3.83;;;2.23;;
3849;SDS011;1940;51.052;13.678;2024-01-07T13:31:37;2.37;;;2.17;;
3849;SDS011;1940;51.052;13.678;2024-01-07T13:34:03;3.53;;;2.47;;
3849;SDS011;1940;51.052;13.678;2024-01-07T13:36:28;2.83;;;1.80;;
3849;SDS011;1940;51.052;13.678;2024-01-07T13:38:54;2.60;;;2.03;;
3849;SDS011;1940;51.052;13.678;2024-01-07T13:41:19;2.07;;;1.87;;
3849;SDS011;1940;51.052;13.678;2024-01-07T13:43:45;2.40;;;1.90;;
3849;SDS011;1940;51.052;13.678;2024-01-07T13:46:10;2.20;;;1.93;;
3849;SDS011;1940;51.052;13.678;2024-01-07T13:48:36;2.83;;;1.80;;
3849;SDS011;1940;51.052;13.678;2024-01-07T13:51:04;2.10;;;1.90;;
3849;SDS011;1940;51.052;13.678;2024-01-07T13:53:30;2.00;;;1.80;;
3849;SDS011;1940;51.052;13.678;2024-01-07T13:55:56;3.40;;;2.10;;
3849;SDS011;1940;51.052;13.678;2024-01-07T13:58:21;3.50;;;2.20;;
3849;SDS011;1940;51.052;13.678;2024-01-07T14:00:48;3.40;;;1.77;;
3849;SDS011;1940;51.052;13.678;2024-01-07T14:03:14;1.70;;;1.60;;
3849;SDS011;1940;51.052;13.678;2024-01-07T14:05:39;3.03;;;2.37;;
3849;SDS011;1940;51.052;13.678;2024-01-07T14:08:05;2.40;;;1.80;;
3849;SDS011;1940;51.052;13.678;2024-01-07T14:10:31;2.47;;;1.83;;
3849;SDS011;1940;51.052;13.678;2024-01-07T14:12:57;2.10;;;1.90;;
3849;SDS011;1940;51.052;13.678;2024-01-07T14:15:22;1.97;;;1.80;;
3849;SDS011;1940;51.052;13.678;2024-01-07T14:17:48;2.83;;;2.23;;
3849;SDS011;1940;51.052;13.678;2024-01-07T14:20:14;3.00;;;1.90;;
3849;SDS011;1940;51.052;13.678;2024-01-07T14:22:39;2.07;;;1.60;;
3849;SDS011;1940;51.052;13.678;2024-01-07T14:25:05;4.17;;;2.30;;
3849;SDS011;1940;51.052;13.678;2024-01-07T14:27:30;2.33;;;2.10;;
3849;SDS011;1940;51.052;13.678;2024-01-07T14:29:56;1.60;;;1.50;;
3849;SDS011;1940;51.052;13.678;2024-01-07T14:32:22;8.80;;;2.77;;
3849;SDS011;1940;51.052;13.678;2024-01-07T14:34:47;2.43;;;2.07;;
3849;SDS011;1940;51.052;13.678;2024-01-07T14:37:14;2.57;;;2.17;;
3849;SDS011;1940;51.052;13.678;2024-01-07T14:39:40;4.20;;;2.67;;
3849;SDS011;1940;51.052;13.678;2024-01-07T14:42:05;2.37;;;2.00;;
3849;SDS011;1940;51.052;13.678;2024-01-07T14:44:31;3.37;;;2.20;;
3849;SDS011;1940;51.052;13.678;2024-01-07T14:46:57;3.23;;;2.30;;